Reno Tahoe International Airport
KRNO : now visible

Airfield :











YOU CAN JOIN US ON...

 
LOGIN :

Register | Disclaimer

   EN    FR    IT 

 









Legend :    VFR   Marginal VFR   IFR   Intensive IFR   Very Intensive IFR
Visi :
Ceiling :
>= 8 km
>= 3000ft
5 to 8 km
1000 to 3000 ft
1500m to 5 km
500 to 1000 ft
800 to 1500m
200 to 500 ft
< 800m
< 200 ft
Symbols :   Thunderstorms  Fog  Heavy snow  Heavy precipitations  Wind > 20 kt






- Airport Elevation : 4415 ft
- IATA code : RNO


KRNO - Reno Tahoe International

CURRENT METAR :
  • 060255Z 28011KT 10SM SCT027 SCT035 BKN055 BKN160 OVC220 04/00 A2960 RMK AO2 RAE05 SLP015 MTNS OBSCD SW THRU NW P0000 60000 T00390000 53004

EXPIRED METARs :
  • 060155Z 29010KT 10SM -RA SCT035 BKN049 BKN060 BKN160 OVC220 06/M02 A2960 RMK AO2 RAB47 SLP010 MTNS OBSCD SE AND SW THRU NW P0000 T00561017
  • 060055Z 29011G20KT 10SM SCT035 BKN065 BKN110 BKN160 OVC220 06/M02 A2960 RMK AO2 SLP007 SH VC SE AND W MTNS OBSCD SW THRU W T00611022

TAF KRNO
Valid from the 06 at 01:00 until the 07 at 00:00 UTC


060117Z 0601/0624 28011G22KT P6SM VCSH SCT030 BKN060 OVC120
FM060400 29012G22KT 6SM -SHRA SCT020 BKN035 OVC050
FM060700 30008KT 4SM -SN SCT015 BKN025
FM061000 34006KT P6SM SCT020 BKN030
FM061800 04007KT P6SM FEW030 SCT040 BKN180



MET'MAP, your aeronautical weather chart ! - Copyright ORBIFLY December 2007 - Disclaimer

ORBIFLY MET'MAP TEAM :

Programming & Development : Alexandra Zaïnal
Concept & original design : Baudouin d'Aumeries
Assistance for programming : Marc-Olivier Méhu
Technical & hardware support : Manuel Goepfert

Contact : metmap@orbifly.com




SOURCES & CREDITS :

   NOAA       Earth
Advisory